createdAt,value
2022-08-17T00:00:43.466Z,52.35
2022-08-17T00:03:18.953Z,52.23
2022-08-17T00:05:52.205Z,52.48
2022-08-17T00:08:23.427Z,52.22
2022-08-17T00:10:54.238Z,52.45
2022-08-17T00:13:27.795Z,52.47
2022-08-17T00:15:59.779Z,52.40
2022-08-17T00:19:06.629Z,52.63
2022-08-17T00:21:25.279Z,52.73
2022-08-17T00:23:55.098Z,53.00
2022-08-17T00:26:44.544Z,53.22
2022-08-17T00:29:17.875Z,52.78
2022-08-17T00:31:48.592Z,53.15
2022-08-17T00:34:18.997Z,53.78
2022-08-17T00:36:47.359Z,53.56
2022-08-17T00:39:15.783Z,53.96
2022-08-17T00:41:44.653Z,54.47
2022-08-17T00:44:13.292Z,54.13
2022-08-17T00:46:44.225Z,54.34
2022-08-17T00:49:15.560Z,54.58
2022-08-17T00:51:51.429Z,54.63
2022-08-17T00:54:25.641Z,54.57
2022-08-17T00:57:01.559Z,54.71
2022-08-17T00:59:35.692Z,54.64
2022-08-17T01:02:05.461Z,54.54
2022-08-17T01:04:34.693Z,54.40
2022-08-17T01:07:06.753Z,54.61
2022-08-17T01:09:35.665Z,54.75
2022-08-17T01:12:06.628Z,54.79
2022-08-17T01:14:37.835Z,54.76
2022-08-17T01:17:07.981Z,54.77
2022-08-17T01:19:40.264Z,54.78
2022-08-17T01:22:22.224Z,54.94
2022-08-17T01:24:59.126Z,55.07
2022-08-17T01:27:28.193Z,55.36
2022-08-17T01:30:02.841Z,55.13
2022-08-17T01:32:31.876Z,55.33
2022-08-17T01:35:01.833Z,55.26
2022-08-17T01:37:35.543Z,55.27
2022-08-17T01:40:11.037Z,55.68
2022-08-17T01:42:46.711Z,55.58
2022-08-17T01:45:19.619Z,54.79
2022-08-17T01:47:47.962Z,54.16
2022-08-17T01:50:20.357Z,53.85
2022-08-17T01:52:57.434Z,53.49
2022-08-17T01:55:32.325Z,53.34
2022-08-17T01:58:02.216Z,53.26
2022-08-17T02:00:54.458Z,53.01
2022-08-17T02:03:20.044Z,52.92
2022-08-17T02:05:49.390Z,52.77
2022-08-17T02:08:20.655Z,53.22
2022-08-17T02:11:11.582Z,53.41
2022-08-17T02:13:40.732Z,53.15
2022-08-17T02:16:09.606Z,53.05
2022-08-17T02:18:38.365Z,53.32
2022-08-17T02:21:08.112Z,53.53
2022-08-17T02:23:43.538Z,53.39
2022-08-17T02:26:25.997Z,54.26
2022-08-17T02:28:55.129Z,54.29
2022-08-17T02:31:23.627Z,54.07
2022-08-17T02:34:00.473Z,54.21
2022-08-17T02:36:34.462Z,54.82
2022-08-17T02:39:06.409Z,54.60
2022-08-17T02:41:34.941Z,54.63
2022-08-17T02:44:03.635Z,54.52
2022-08-17T02:46:32.346Z,55.02
2022-08-17T02:49:01.139Z,54.97
2022-08-17T02:51:29.700Z,55.04
2022-08-17T02:54:38.804Z,55.17
2022-08-17T02:56:48.072Z,55.30
2022-08-17T02:59:16.463Z,55.40
2022-08-17T03:01:44.951Z,55.22
2022-08-17T03:04:13.594Z,55.29
2022-08-17T03:06:42.021Z,55.33
2022-08-17T03:09:10.499Z,55.39
2022-08-17T03:11:38.903Z,55.04
2022-08-17T03:14:08.759Z,54.73
2022-08-17T03:16:37.214Z,54.72
2022-08-17T03:19:07.759Z,54.78
2022-08-17T03:21:36.285Z,54.99
2022-08-17T03:24:08.970Z,54.78
2022-08-17T03:26:37.742Z,54.66
2022-08-17T03:29:06.198Z,54.77
2022-08-17T03:31:37.227Z,54.96
2022-08-17T03:34:06.078Z,55.03
2022-08-17T03:36:36.069Z,54.95
2022-08-17T03:39:05.394Z,55.24
2022-08-17T03:41:33.938Z,55.80
2022-08-17T03:44:02.624Z,55.67
2022-08-17T03:46:48.553Z,55.79
2022-08-17T03:49:35.696Z,56.21
2022-08-17T03:52:22.056Z,55.32
2022-08-17T03:55:10.286Z,55.92
2022-08-17T03:57:39.029Z,55.57
2022-08-17T04:00:09.338Z,55.24
2022-08-17T04:02:41.819Z,55.33
2022-08-17T04:05:11.681Z,55.35
2022-08-17T04:07:40.062Z,55.35
2022-08-17T04:10:09.673Z,55.40
2022-08-17T04:12:48.805Z,55.95
2022-08-17T04:15:18.637Z,55.85
2022-08-17T04:17:47.014Z,55.98
2022-08-17T04:20:19.061Z,56.10
2022-08-17T04:22:59.402Z,56.08
2022-08-17T04:25:28.414Z,55.97
2022-08-17T04:27:56.969Z,56.16
2022-08-17T04:30:25.967Z,56.17
2022-08-17T04:33:04.320Z,56.25
2022-08-17T04:35:41.166Z,56.33
2022-08-17T04:38:13.091Z,56.93
2022-08-17T04:40:59.517Z,56.86
2022-08-17T04:43:30.034Z,56.74
2022-08-17T04:46:02.869Z,57.00
2022-08-17T04:48:36.207Z,57.07
2022-08-17T04:51:11.781Z,57.37
2022-08-17T04:53:42.240Z,57.29
2022-08-17T04:56:17.067Z,57.65
2022-08-17T04:58:50.241Z,57.65
2022-08-17T05:01:23.624Z,57.65
2022-08-17T05:03:54.168Z,58.04
2022-08-17T05:06:24.934Z,57.97
2022-08-17T05:08:54.013Z,57.95
2022-08-17T05:11:23.500Z,58.02
2022-08-17T05:13:52.031Z,58.13
2022-08-17T05:16:21.783Z,57.58
2022-08-17T05:18:50.455Z,57.67
2022-08-17T05:21:20.130Z,57.66
2022-08-17T05:23:53.252Z,58.05
2022-08-17T05:26:26.516Z,57.96
2022-08-17T05:29:02.579Z,57.78
2022-08-17T05:31:32.405Z,57.53
2022-08-17T05:34:00.802Z,56.77
2022-08-17T05:36:41.862Z,55.84
2022-08-17T05:39:16.108Z,54.91
2022-08-17T05:41:47.846Z,54.45
2022-08-17T05:44:16.879Z,54.04
2022-08-17T05:46:50.693Z,54.23
2022-08-17T05:49:24.679Z,54.53
2022-08-17T05:52:18.851Z,54.92
2022-08-17T05:55:11.456Z,54.83
2022-08-17T05:57:55.905Z,54.60
2022-08-17T06:00:30.690Z,54.82
2022-08-17T06:03:23.301Z,54.58
2022-08-17T06:06:02.811Z,54.39
2022-08-17T06:08:41.190Z,54.61
2022-08-17T06:11:24.079Z,54.35
2022-08-17T06:14:14.937Z,54.67
2022-08-17T06:16:47.355Z,54.30
2022-08-17T06:19:20.508Z,54.11
2022-08-17T06:21:52.670Z,54.23
2022-08-17T06:24:29.324Z,54.43
2022-08-17T06:27:03.783Z,54.18
2022-08-17T06:29:44.020Z,54.28
2022-08-17T06:32:14.410Z,55.07
2022-08-17T06:34:44.718Z,55.53
2022-08-17T06:37:48.961Z,55.60
2022-08-17T06:40:39.062Z,55.13
2022-08-17T06:43:48.025Z,54.92
2022-08-17T06:46:25.441Z,55.21
2022-08-17T06:49:10.914Z,55.47
2022-08-17T06:51:43.312Z,55.64
2022-08-17T06:54:20.551Z,54.84
2022-08-17T06:56:55.386Z,54.52
2022-08-17T06:59:53.260Z,53.81
2022-08-17T07:02:51.218Z,53.68
2022-08-17T07:05:26.885Z,54.06
2022-08-17T07:08:03.040Z,53.66
2022-08-17T07:10:40.644Z,53.42
2022-08-17T07:13:32.617Z,53.43
2022-08-17T07:16:15.427Z,53.99
2022-08-17T07:18:44.827Z,54.52
2022-08-17T07:21:29.716Z,54.53
2022-08-17T07:24:29.852Z,55.04
2022-08-17T07:27:15.745Z,54.87
2022-08-17T07:29:51.314Z,54.93
2022-08-17T07:32:26.734Z,54.58
2022-08-17T07:35:15.609Z,54.20
2022-08-17T07:37:53.109Z,54.16
2022-08-17T07:40:34.964Z,54.04
2022-08-17T07:43:18.790Z,53.83
2022-08-17T07:46:31.959Z,53.27
2022-08-17T07:49:23.347Z,52.20
2022-08-17T07:52:13.404Z,52.45
2022-08-17T07:54:50.914Z,52.38
2022-08-17T07:57:34.011Z,52.14
2022-08-17T08:00:19.576Z,51.98
2022-08-17T08:03:13.264Z,52.23
2022-08-17T08:05:54.902Z,52.27
2022-08-17T08:08:30.239Z,52.65
2022-08-17T08:11:08.242Z,53.18
2022-08-17T08:13:42.646Z,53.15
2022-08-17T08:16:24.766Z,53.11
2022-08-17T08:18:57.948Z,52.84
2022-08-17T08:21:41.824Z,53.31
2022-08-17T08:24:48.936Z,53.48
2022-08-17T08:27:35.676Z,53.79
2022-08-17T08:30:09.641Z,53.45
2022-08-17T08:32:57.849Z,54.58
2022-08-17T08:35:33.825Z,53.21
2022-08-17T08:38:16.800Z,53.25
2022-08-17T08:41:01.454Z,53.73
2022-08-17T08:43:42.646Z,53.63
2022-08-17T08:46:20.879Z,54.73
2022-08-17T08:49:39.091Z,53.96
2022-08-17T08:52:38.417Z,54.00
2022-08-17T08:55:19.000Z,52.93
2022-08-17T08:57:56.356Z,54.33
2022-08-17T09:00:27.358Z,54.57
2022-08-17T09:03:42.577Z,55.24
2022-08-17T09:06:39.312Z,55.01
2022-08-17T09:09:25.412Z,54.90
2022-08-17T09:12:05.648Z,53.35
2022-08-17T09:14:46.638Z,54.56
2022-08-17T09:17:19.239Z,53.83
2022-08-17T09:19:51.845Z,53.83
2022-08-17T09:22:31.764Z,54.94
2022-08-17T09:25:08.731Z,55.68
2022-08-17T09:27:54.639Z,55.88
2022-08-17T09:30:24.973Z,55.08
2022-08-17T09:33:00.610Z,54.92
2022-08-17T09:35:36.936Z,55.75
2022-08-17T09:38:21.345Z,54.47
2022-08-17T09:40:54.631Z,54.66
2022-08-17T09:43:34.818Z,53.86
2022-08-17T09:46:11.223Z,53.90
2022-08-17T09:48:46.247Z,54.31
2022-08-17T09:51:23.057Z,54.01
2022-08-17T09:53:52.315Z,53.68
2022-08-17T09:56:42.320Z,53.32
2022-08-17T09:59:38.436Z,52.11
2022-08-17T10:02:28.973Z,52.37
2022-08-17T10:05:03.891Z,53.44
2022-08-17T10:07:40.997Z,51.43
2022-08-17T10:10:17.485Z,51.70
2022-08-17T10:12:55.146Z,50.68
2022-08-17T10:15:42.490Z,49.53
2022-08-17T10:18:34.341Z,47.67
2022-08-17T10:21:25.175Z,47.94
2022-08-17T10:24:21.746Z,48.36
2022-08-17T10:26:56.503Z,47.89
2022-08-17T10:29:46.156Z,48.25
2022-08-17T10:32:32.355Z,47.55
2022-08-17T10:35:34.563Z,47.93
2022-08-17T10:38:42.800Z,47.88
2022-08-17T10:41:26.954Z,46.67
2022-08-17T10:44:40.051Z,47.47
2022-08-17T10:47:08.513Z,47.87
2022-08-17T10:49:47.826Z,47.01
2022-08-17T10:52:51.944Z,46.57
2022-08-17T10:55:21.476Z,45.62
2022-08-17T10:57:54.837Z,46.55
2022-08-17T11:01:11.449Z,47.70
2022-08-17T11:03:54.697Z,48.08
2022-08-17T11:06:36.705Z,47.81
2022-08-17T11:09:34.931Z,47.83
2022-08-17T11:12:16.898Z,48.86
2022-08-17T11:15:08.453Z,49.62
2022-08-17T11:18:20.481Z,48.57
2022-08-17T11:21:40.419Z,48.68
2022-08-17T11:24:19.230Z,49.05
2022-08-17T11:27:05.886Z,48.69
2022-08-17T11:29:40.528Z,49.31
2022-08-17T11:32:13.393Z,50.22
2022-08-17T11:34:44.622Z,48.93
2022-08-17T11:37:37.586Z,48.24
2022-08-17T11:40:34.029Z,47.90
2022-08-17T11:44:16.076Z,47.08
2022-08-17T11:47:23.472Z,46.93
2022-08-17T11:50:55.447Z,46.09
2022-08-17T11:57:02.274Z,45.44
2022-08-17T12:00:01.551Z,44.43
2022-08-17T12:02:48.287Z,44.04
2022-08-17T12:05:34.315Z,43.30
2022-08-17T12:08:21.301Z,43.29
2022-08-17T12:11:08.015Z,44.09
2022-08-17T12:13:46.072Z,43.92
2022-08-17T12:16:16.867Z,42.97
2022-08-17T12:18:52.597Z,42.24
2022-08-17T12:21:46.315Z,41.93
2022-08-17T12:24:32.364Z,41.84
2022-08-17T12:27:05.446Z,44.07
2022-08-17T12:29:38.338Z,42.47
2022-08-17T12:32:17.491Z,44.16
2022-08-17T12:34:49.199Z,43.68
2022-08-17T12:37:22.286Z,41.44
2022-08-17T12:39:58.618Z,42.30
2022-08-17T12:42:31.645Z,42.93
2022-08-17T12:45:00.477Z,42.18
2022-08-17T12:47:30.463Z,43.11
2022-08-17T12:50:28.458Z,43.00
2022-08-17T12:53:01.946Z,41.95
2022-08-17T12:55:37.381Z,42.58
2022-08-17T12:58:14.396Z,43.66
2022-08-17T13:00:51.114Z,43.73
2022-08-17T13:03:23.926Z,42.39
2022-08-17T13:06:01.729Z,41.80
2022-08-17T13:08:36.118Z,42.71
2022-08-17T13:11:09.413Z,41.38
2022-08-17T13:13:43.448Z,42.71
2022-08-17T13:16:20.304Z,41.96
2022-08-17T13:18:51.407Z,41.27
2022-08-17T13:21:30.386Z,41.55
2022-08-17T13:24:02.611Z,42.27
2022-08-17T13:26:35.050Z,40.92
2022-08-17T13:29:08.814Z,42.17
2022-08-17T13:31:51.956Z,40.02
2022-08-17T13:34:38.117Z,40.29
2022-08-17T13:37:30.373Z,42.27
2022-08-17T13:40:05.060Z,40.11
2022-08-17T13:42:50.444Z,40.98
2022-08-17T13:45:54.619Z,40.02
2022-08-17T13:48:28.212Z,40.84
2022-08-17T13:51:29.172Z,40.65
2022-08-17T13:54:03.521Z,41.64
2022-08-17T13:56:40.487Z,44.11
2022-08-17T13:59:13.005Z,42.78
2022-08-17T14:01:51.068Z,40.72
2022-08-17T14:04:31.732Z,40.91
2022-08-17T14:07:05.043Z,40.06
2022-08-17T14:09:37.580Z,41.79
2022-08-17T14:12:11.578Z,40.34
2022-08-17T14:14:40.814Z,39.75
2022-08-17T14:17:11.003Z,41.02
2022-08-17T14:19:40.251Z,39.06
2022-08-17T14:22:13.799Z,41.62
2022-08-17T14:24:45.058Z,41.56
2022-08-17T14:27:13.821Z,39.32
2022-08-17T14:29:42.553Z,41.19
2022-08-17T14:32:19.428Z,39.47
2022-08-17T14:34:49.650Z,38.67
2022-08-17T14:37:18.542Z,38.57
2022-08-17T14:39:47.342Z,41.04
2022-08-17T14:42:18.528Z,37.54
2022-08-17T14:44:47.063Z,41.29
2022-08-17T14:47:16.980Z,37.43
2022-08-17T14:49:48.358Z,40.32
2022-08-17T14:52:21.797Z,38.82
2022-08-17T14:54:51.339Z,39.47
2022-08-17T14:57:32.921Z,39.12
2022-08-17T15:00:04.727Z,37.79
2022-08-17T15:02:47.139Z,37.76
2022-08-17T15:05:18.188Z,38.65
2022-08-17T15:07:46.832Z,41.30
2022-08-17T15:10:16.797Z,38.56
2022-08-17T15:12:45.534Z,37.53
2022-08-17T15:15:17.328Z,40.85
2022-08-17T15:17:47.435Z,38.55
2022-08-17T15:20:18.954Z,40.20
2022-08-17T15:22:50.554Z,40.50
2022-08-17T15:25:22.169Z,37.02
2022-08-17T15:27:51.183Z,40.13
2022-08-17T15:30:20.035Z,40.05
2022-08-17T15:32:55.087Z,39.96
2022-08-17T15:35:28.593Z,40.67
2022-08-17T15:38:07.886Z,35.37
2022-08-17T15:40:43.185Z,35.55
2022-08-17T15:43:16.161Z,34.69
2022-08-17T15:45:58.650Z,36.59
2022-08-17T15:48:41.923Z,39.31
2022-08-17T15:51:14.274Z,35.70
2022-08-17T15:53:46.447Z,39.51
2022-08-17T15:56:16.157Z,35.58
2022-08-17T15:58:46.764Z,39.89
2022-08-17T16:01:27.848Z,35.77
2022-08-17T16:04:27.000Z,38.04
2022-08-17T16:06:56.521Z,38.92
2022-08-17T16:09:24.951Z,38.25
2022-08-17T16:11:55.176Z,39.46
2022-08-17T16:14:24.493Z,39.11
2022-08-17T16:16:59.349Z,38.52
2022-08-17T16:19:29.139Z,38.99
2022-08-17T16:21:57.659Z,36.56
2022-08-17T16:24:26.103Z,36.67
2022-08-17T16:26:55.377Z,37.78
2022-08-17T16:29:24.498Z,36.89
2022-08-17T16:31:53.452Z,36.26
2022-08-17T16:34:22.060Z,37.01
2022-08-17T16:36:55.365Z,38.42
2022-08-17T16:39:27.258Z,38.62
2022-08-17T16:41:56.437Z,39.75
2022-08-17T16:44:26.025Z,38.38
2022-08-17T16:46:54.809Z,38.83
2022-08-17T16:49:35.969Z,38.87
2022-08-17T16:52:11.263Z,38.63
2022-08-17T16:54:43.608Z,38.49
2022-08-17T16:57:13.323Z,37.33
2022-08-17T16:59:47.460Z,38.96
2022-08-17T17:02:25.221Z,37.96
2022-08-17T17:04:59.399Z,37.50
2022-08-17T17:07:56.960Z,39.01
2022-08-17T17:10:30.205Z,39.85
2022-08-17T17:13:02.209Z,38.68
2022-08-17T17:15:55.751Z,38.18
2022-08-17T17:18:37.381Z,40.45
2022-08-17T17:21:10.636Z,39.73
2022-08-17T17:23:54.811Z,39.38
2022-08-17T17:26:59.066Z,36.83
2022-08-17T17:29:47.456Z,38.26
2022-08-17T17:32:23.093Z,38.04
2022-08-17T17:34:56.282Z,37.41
2022-08-17T17:37:33.281Z,38.92
2022-08-17T17:40:09.439Z,38.84
2022-08-17T17:42:43.319Z,38.35
2022-08-17T17:45:20.089Z,38.88
2022-08-17T17:47:49.038Z,38.86
2022-08-17T17:50:20.685Z,40.60
2022-08-17T17:53:03.353Z,36.44
2022-08-17T17:55:44.162Z,38.60
2022-08-17T17:58:29.422Z,37.54
2022-08-17T18:01:18.962Z,37.63
2022-08-17T18:04:05.424Z,40.86
2022-08-17T18:07:06.155Z,40.21
2022-08-17T18:10:05.449Z,42.37
2022-08-17T18:12:57.825Z,41.47
2022-08-17T18:15:31.430Z,42.88
2022-08-17T18:18:31.790Z,41.38
2022-08-17T18:21:06.521Z,42.28
2022-08-17T18:23:35.427Z,39.03
2022-08-17T18:26:03.940Z,43.82
2022-08-17T18:28:38.440Z,42.18
2022-08-17T18:31:19.246Z,41.64
2022-08-17T18:33:51.380Z,40.97
2022-08-17T18:36:30.231Z,44.71
2022-08-17T18:39:16.567Z,42.17
2022-08-17T18:41:47.676Z,41.28
2022-08-17T18:44:29.017Z,41.65
2022-08-17T18:47:14.916Z,41.37
2022-08-17T18:49:47.251Z,40.71
2022-08-17T18:52:19.629Z,40.52
2022-08-17T18:55:09.749Z,41.94
2022-08-17T18:57:42.534Z,41.58
2022-08-17T19:00:37.196Z,42.19
2022-08-17T19:03:24.564Z,40.94
2022-08-17T19:05:56.449Z,40.64
2022-08-17T19:08:36.603Z,41.04
2022-08-17T19:11:10.339Z,40.83
2022-08-17T19:13:44.418Z,40.98
2022-08-17T19:16:20.188Z,40.71
2022-08-17T19:18:58.249Z,41.27
2022-08-17T19:21:34.313Z,42.57
2022-08-17T19:24:11.208Z,41.18
2022-08-17T19:26:53.374Z,41.26
2022-08-17T19:29:34.227Z,41.54
2022-08-17T19:32:05.417Z,41.99
2022-08-17T19:34:38.038Z,42.49
2022-08-17T19:37:13.423Z,41.72
2022-08-17T19:39:52.403Z,41.83
2022-08-17T19:42:41.251Z,41.96
2022-08-17T19:45:17.832Z,42.31
2022-08-17T19:47:55.592Z,42.85
2022-08-17T19:50:39.115Z,42.44
2022-08-17T19:53:21.044Z,42.64
2022-08-17T19:56:02.518Z,43.00
2022-08-17T19:58:49.069Z,43.11
2022-08-17T20:01:34.908Z,42.63
2022-08-17T20:04:13.711Z,43.03
2022-08-17T20:06:46.896Z,42.83
2022-08-17T20:09:24.218Z,43.47
2022-08-17T20:12:08.564Z,43.46
2022-08-17T20:14:53.740Z,43.63
2022-08-17T20:17:28.496Z,43.57
2022-08-17T20:20:07.650Z,44.00
2022-08-17T20:22:55.899Z,44.11
2022-08-17T20:25:32.631Z,44.20
2022-08-17T20:28:12.620Z,44.28
2022-08-17T20:30:43.979Z,44.54
2022-08-17T20:33:27.132Z,44.51
2022-08-17T20:36:15.731Z,44.74
2022-08-17T20:38:47.616Z,44.89
2022-08-17T20:41:20.794Z,44.97
2022-08-17T20:44:06.797Z,44.81
2022-08-17T20:46:58.303Z,44.92
2022-08-17T20:49:34.951Z,44.84
2022-08-17T20:52:09.138Z,45.33
2022-08-17T20:54:51.340Z,44.85
2022-08-17T20:57:48.642Z,45.29
2022-08-17T21:00:45.228Z,45.82
2022-08-17T21:03:52.180Z,46.08
2022-08-17T21:06:24.510Z,45.82
2022-08-17T21:08:59.068Z,46.25
2022-08-17T21:12:05.238Z,45.50
2022-08-17T21:14:59.710Z,45.79
2022-08-17T21:17:59.231Z,45.85
2022-08-17T21:20:40.772Z,46.49
2022-08-17T21:23:45.006Z,46.18
2022-08-17T21:26:29.670Z,46.98
2022-08-17T21:29:31.309Z,46.64
2022-08-17T21:32:24.214Z,46.74
2022-08-17T21:35:30.423Z,46.69
2022-08-17T21:38:05.175Z,47.23
2022-08-17T21:40:35.102Z,47.13
2022-08-17T21:43:24.074Z,47.42
2022-08-17T21:46:01.901Z,47.50
2022-08-17T21:48:33.459Z,47.71
2022-08-17T21:51:13.975Z,48.10
2022-08-17T21:53:56.787Z,47.76
2022-08-17T21:56:30.348Z,47.87
2022-08-17T21:59:04.128Z,47.65
2022-08-17T22:01:36.274Z,47.45
2022-08-17T22:04:20.171Z,47.53
2022-08-17T22:06:52.592Z,47.88
2022-08-17T22:09:29.012Z,48.07
2022-08-17T22:12:09.090Z,48.21
2022-08-17T22:14:52.979Z,48.74
2022-08-17T22:17:25.384Z,48.55
2022-08-17T22:19:59.062Z,49.21
2022-08-17T22:22:55.853Z,49.69
2022-08-17T22:25:27.279Z,49.25
2022-08-17T22:27:59.792Z,49.58
2022-08-17T22:30:34.715Z,49.97
2022-08-17T22:33:31.950Z,50.09
2022-08-17T22:36:22.120Z,50.38
2022-08-17T22:38:51.565Z,50.52
2022-08-17T22:41:39.174Z,50.91
2022-08-17T22:44:24.502Z,50.37
2022-08-17T22:47:06.715Z,50.53
2022-08-17T22:49:53.334Z,50.67
2022-08-17T22:52:35.426Z,51.24
2022-08-17T22:55:33.051Z,51.04
2022-08-17T22:58:19.812Z,51.28
2022-08-17T23:00:51.100Z,51.31
2022-08-17T23:03:23.242Z,51.70
2022-08-17T23:06:08.201Z,51.87
2022-08-17T23:08:45.374Z,51.59
2022-08-17T23:11:15.047Z,51.75
2022-08-17T23:13:44.391Z,51.95
2022-08-17T23:16:14.908Z,52.28
2022-08-17T23:18:47.973Z,52.18
2022-08-17T23:21:16.509Z,52.83
2022-08-17T23:23:56.068Z,52.88
2022-08-17T23:26:26.959Z,52.86
2022-08-17T23:28:55.413Z,53.07
2022-08-17T23:31:25.934Z,53.49
2022-08-17T23:33:55.882Z,53.22
2022-08-17T23:36:24.359Z,53.28
2022-08-17T23:38:54.551Z,53.21
2022-08-17T23:41:26.847Z,53.21
2022-08-17T23:43:55.417Z,53.38
2022-08-17T23:46:25.101Z,53.65
2022-08-17T23:48:54.899Z,53.83
2022-08-17T23:51:28.907Z,53.59
2022-08-17T23:54:07.996Z,54.05
2022-08-17T23:56:41.977Z,54.24
2022-08-17T23:59:10.338Z,54.28
